createdAt,value
2022-12-15T00:00:33.777Z,12.70
2022-12-15T00:03:25.937Z,14.00
2022-12-15T00:06:10.918Z,14.18
2022-12-15T00:08:55.642Z,13.77
2022-12-15T00:11:40.579Z,12.48
2022-12-15T00:14:25.364Z,14.02
2022-12-15T00:17:10.290Z,12.95
2022-12-15T00:19:55.209Z,12.10
2022-12-15T00:22:40.240Z,12.63
2022-12-15T00:25:25.009Z,13.07
2022-12-15T00:28:09.888Z,12.23
2022-12-15T00:31:00.533Z,13.90
2022-12-15T00:33:46.946Z,12.00
2022-12-15T00:36:31.815Z,11.68
2022-12-15T00:39:03.405Z,11.98
2022-12-15T00:41:30.168Z,12.43
2022-12-15T00:43:56.517Z,12.32
2022-12-15T00:46:41.451Z,13.20
2022-12-15T00:49:27.847Z,13.10
2022-12-15T00:52:12.594Z,11.90
2022-12-15T00:54:57.447Z,12.48
2022-12-15T00:57:42.265Z,12.80
2022-12-15T01:00:27.616Z,14.32
2022-12-15T01:03:12.519Z,12.38
2022-12-15T01:05:57.601Z,12.38
2022-12-15T01:08:42.546Z,13.82
2022-12-15T01:11:27.583Z,13.90
2022-12-15T01:14:12.422Z,13.73
2022-12-15T01:16:57.111Z,13.90
2022-12-15T01:19:41.943Z,15.25
2022-12-15T01:22:08.235Z,14.82
2022-12-15T01:24:34.753Z,12.93
2022-12-15T01:27:01.058Z,13.77
2022-12-15T01:29:27.441Z,14.07
2022-12-15T01:31:53.801Z,14.30
2022-12-15T01:34:22.586Z,15.02
2022-12-15T01:36:48.940Z,15.35
2022-12-15T01:39:15.604Z,15.02
2022-12-15T01:41:42.016Z,13.93
2022-12-15T01:44:15.325Z,15.07
2022-12-15T01:46:41.695Z,15.20
2022-12-15T01:49:14.220Z,16.50
2022-12-15T01:51:44.659Z,14.85
2022-12-15T01:54:16.770Z,15.70
2022-12-15T01:56:45.051Z,15.13
2022-12-15T01:59:14.931Z,14.88
2022-12-15T02:01:41.434Z,14.13
2022-12-15T02:04:10.048Z,15.00
2022-12-15T02:06:36.709Z,14.65
2022-12-15T02:09:04.106Z,14.48
2022-12-15T02:11:30.473Z,15.50
2022-12-15T02:14:00.744Z,15.15
2022-12-15T02:16:29.973Z,15.68
2022-12-15T02:19:19.413Z,14.23
2022-12-15T02:22:06.029Z,14.07
2022-12-15T02:24:43.200Z,13.75
2022-12-15T02:27:25.323Z,13.38
2022-12-15T02:30:10.349Z,14.48
2022-12-15T02:33:00.058Z,14.18
2022-12-15T02:35:31.937Z,12.40
2022-12-15T02:37:58.277Z,14.50
2022-12-15T02:40:24.679Z,14.07
2022-12-15T02:42:55.157Z,14.18
2022-12-15T02:45:27.753Z,13.52
2022-12-15T02:48:00.026Z,12.80
2022-12-15T02:50:45.160Z,14.48
2022-12-15T02:53:20.190Z,13.75
2022-12-15T02:55:55.681Z,14.13
2022-12-15T02:58:34.259Z,13.98
2022-12-15T03:01:10.079Z,14.18
2022-12-15T03:03:37.952Z,14.02
2022-12-15T03:06:04.546Z,13.40
2022-12-15T03:08:30.853Z,13.48
2022-12-15T03:10:57.993Z,15.15
2022-12-15T03:13:24.905Z,14.48
2022-12-15T03:15:52.528Z,14.80
2022-12-15T03:18:18.864Z,14.38
2022-12-15T03:20:45.221Z,15.18
2022-12-15T03:23:11.678Z,15.35
2022-12-15T03:25:38.030Z,14.55
2022-12-15T03:28:04.385Z,14.35
2022-12-15T03:30:30.707Z,13.60
2022-12-15T03:32:57.107Z,15.13
2022-12-15T03:35:23.417Z,13.77
2022-12-15T03:37:49.793Z,14.35
2022-12-15T03:40:16.235Z,14.75
2022-12-15T03:42:50.433Z,14.60
2022-12-15T03:45:21.273Z,14.73
2022-12-15T03:47:48.097Z,14.88
2022-12-15T03:50:16.059Z,14.57
2022-12-15T03:52:42.821Z,13.40
2022-12-15T03:55:09.659Z,14.73
2022-12-15T03:57:36.195Z,14.95
2022-12-15T04:00:02.590Z,14.13
2022-12-15T04:02:39.003Z,13.63
2022-12-15T04:05:05.644Z,14.50
2022-12-15T04:07:31.952Z,13.98
2022-12-15T04:09:58.307Z,14.57
2022-12-15T04:12:24.659Z,14.65
2022-12-15T04:14:50.956Z,15.65
2022-12-15T04:17:17.365Z,14.60
2022-12-15T04:20:02.437Z,14.88
2022-12-15T04:22:28.777Z,13.90
2022-12-15T04:25:13.898Z,15.15
2022-12-15T04:28:01.679Z,15.05
2022-12-15T04:30:48.790Z,15.40
2022-12-15T04:33:33.969Z,15.20
2022-12-15T04:36:19.358Z,16.90
2022-12-15T04:39:04.122Z,17.05
2022-12-15T04:41:49.848Z,15.57
2022-12-15T04:44:34.744Z,15.10
2022-12-15T04:47:19.624Z,16.27
2022-12-15T04:50:04.596Z,15.35
2022-12-15T04:52:49.774Z,14.52
2022-12-15T04:55:34.612Z,14.93
2022-12-15T04:58:23.053Z,15.82
2022-12-15T05:01:08.453Z,15.23
2022-12-15T05:03:53.333Z,15.23
2022-12-15T05:06:38.445Z,15.85
2022-12-15T05:09:23.671Z,14.02
2022-12-15T05:12:08.488Z,14.98
2022-12-15T05:14:53.405Z,15.27
2022-12-15T05:17:41.370Z,15.00
2022-12-15T05:20:26.907Z,13.55
2022-12-15T05:23:12.791Z,14.57
2022-12-15T05:25:58.017Z,14.00
2022-12-15T05:28:42.791Z,13.77
2022-12-15T05:31:28.083Z,14.45
2022-12-15T05:33:59.574Z,14.23
2022-12-15T05:36:29.702Z,14.20
2022-12-15T05:38:56.205Z,14.35
2022-12-15T05:41:23.333Z,13.85
2022-12-15T05:43:49.828Z,14.25
2022-12-15T05:46:16.195Z,14.30
2022-12-15T05:48:42.559Z,15.10
2022-12-15T05:51:10.691Z,14.02
2022-12-15T05:53:37.694Z,14.18
2022-12-15T05:56:05.091Z,14.90
2022-12-15T05:58:31.831Z,13.52
2022-12-15T06:01:08.456Z,13.57
2022-12-15T06:03:35.153Z,13.30
2022-12-15T06:06:02.546Z,13.73
2022-12-15T06:08:29.903Z,14.57
2022-12-15T06:10:56.828Z,16.92
2022-12-15T06:13:24.194Z,17.17
2022-12-15T06:15:54.384Z,17.65
2022-12-15T06:18:20.710Z,15.02
2022-12-15T06:20:47.005Z,15.68
2022-12-15T06:23:16.076Z,15.82
2022-12-15T06:25:42.522Z,16.38
2022-12-15T06:28:08.873Z,15.18
2022-12-15T06:30:35.696Z,17.42
2022-12-15T06:33:01.996Z,17.20
2022-12-15T06:35:28.371Z,16.73
2022-12-15T06:37:54.662Z,17.67
2022-12-15T06:40:21.012Z,17.25
2022-12-15T06:42:47.340Z,16.55
2022-12-15T06:45:13.721Z,17.60
2022-12-15T06:47:40.885Z,16.45
2022-12-15T06:50:07.788Z,17.27
2022-12-15T06:52:34.102Z,17.17
2022-12-15T06:55:00.654Z,16.60
2022-12-15T06:57:26.958Z,16.85
2022-12-15T06:59:53.241Z,17.83
2022-12-15T07:02:28.519Z,16.42
2022-12-15T07:04:55.405Z,18.35
2022-12-15T07:07:21.705Z,17.23
2022-12-15T07:09:48.040Z,16.45
2022-12-15T07:12:14.428Z,17.50
2022-12-15T07:14:40.715Z,18.27
2022-12-15T07:17:07.064Z,17.73
2022-12-15T07:19:33.533Z,17.60
2022-12-15T07:22:01.245Z,16.30
2022-12-15T07:24:27.545Z,17.13
2022-12-15T07:26:53.895Z,16.95
2022-12-15T07:29:23.483Z,17.52
2022-12-15T07:31:50.528Z,17.90
2022-12-15T07:34:16.929Z,16.48
2022-12-15T07:36:48.547Z,17.00
2022-12-15T07:39:18.068Z,14.68
2022-12-15T07:41:44.417Z,16.30
2022-12-15T07:44:10.709Z,15.75
2022-12-15T07:46:37.150Z,16.58
2022-12-15T07:49:03.496Z,18.30
2022-12-15T07:51:29.944Z,17.58
2022-12-15T07:53:56.336Z,18.15
2022-12-15T07:56:22.974Z,16.52
2022-12-15T07:58:49.615Z,17.40
2022-12-15T08:01:16.289Z,16.88
2022-12-15T08:03:42.860Z,17.70
2022-12-15T08:06:11.131Z,17.20
2022-12-15T08:08:37.733Z,16.42
2022-12-15T08:11:14.248Z,18.65
2022-12-15T08:16:27.824Z,18.13
2022-12-15T08:18:54.200Z,17.80
2022-12-15T08:21:20.764Z,17.35
2022-12-15T08:23:47.789Z,19.15
2022-12-15T08:26:15.262Z,18.40
2022-12-15T08:28:42.321Z,18.40
2022-12-15T08:31:16.744Z,20.20
2022-12-15T08:33:44.645Z,18.20
2022-12-15T08:36:11.737Z,20.23
2022-12-15T08:38:38.862Z,19.27
2022-12-15T08:41:08.426Z,20.15
2022-12-15T08:43:34.950Z,19.17
2022-12-15T08:46:01.527Z,19.52
2022-12-15T08:48:27.939Z,20.27
2022-12-15T08:50:57.721Z,20.73
2022-12-15T08:53:41.419Z,20.42
2022-12-15T08:56:08.911Z,18.75
2022-12-15T08:58:35.635Z,20.48
2022-12-15T09:01:03.110Z,20.55
2022-12-15T09:03:29.870Z,19.35
2022-12-15T09:05:57.611Z,20.13
2022-12-15T09:08:24.608Z,20.10
2022-12-15T09:10:52.621Z,19.83
2022-12-15T09:13:19.271Z,20.10
2022-12-15T09:16:08.476Z,19.98
2022-12-15T09:18:32.150Z,19.75
2022-12-15T09:21:03.079Z,21.45
2022-12-15T09:23:30.108Z,19.85
2022-12-15T09:26:00.705Z,20.95
2022-12-15T09:28:28.258Z,21.60
2022-12-15T09:30:54.868Z,20.10
2022-12-15T09:33:21.194Z,21.35
2022-12-15T09:35:50.889Z,19.92
2022-12-15T09:38:17.251Z,20.55
2022-12-15T09:40:43.743Z,21.45
2022-12-15T09:43:34.051Z,22.80
2022-12-15T09:46:05.373Z,21.20
2022-12-15T09:48:36.316Z,20.85
2022-12-15T09:51:04.280Z,21.33
2022-12-15T09:53:54.265Z,22.55
2022-12-15T09:56:23.388Z,20.52
2022-12-15T09:58:50.744Z,19.07
2022-12-15T10:01:17.150Z,21.40
2022-12-15T10:03:55.449Z,21.88
2022-12-15T10:09:37.149Z,20.70
2022-12-15T10:12:06.978Z,20.25
2022-12-15T10:14:42.193Z,20.88
2022-12-15T10:17:27.618Z,22.30
2022-12-15T10:20:12.585Z,23.10
2022-12-15T10:22:38.938Z,22.20
2022-12-15T10:25:16.033Z,21.25
2022-12-15T10:27:54.018Z,20.55
2022-12-15T10:30:20.869Z,21.60
2022-12-15T10:32:51.714Z,21.90
2022-12-15T10:35:21.805Z,20.95
2022-12-15T10:37:48.159Z,22.52
2022-12-15T10:40:39.250Z,20.80
2022-12-15T10:43:12.638Z,20.77
2022-12-15T10:45:39.538Z,20.45
2022-12-15T10:48:06.885Z,18.33
2022-12-15T10:50:34.125Z,18.80
2022-12-15T10:53:06.389Z,19.10
2022-12-15T10:55:32.814Z,18.05
2022-12-15T10:58:00.179Z,17.67
2022-12-15T11:00:28.851Z,16.45
2022-12-15T11:02:55.546Z,17.67
2022-12-15T11:05:22.122Z,19.08
2022-12-15T11:07:50.287Z,17.73
2022-12-15T11:10:18.212Z,17.52
2022-12-15T11:12:51.205Z,18.45
2022-12-15T11:15:23.302Z,17.05
2022-12-15T11:17:52.431Z,18.10
2022-12-15T11:20:22.344Z,17.38
2022-12-15T11:23:02.834Z,16.85
2022-12-15T11:25:35.105Z,17.45
2022-12-15T11:28:04.396Z,17.27
2022-12-15T11:30:35.229Z,17.17
2022-12-15T11:33:02.978Z,18.27
2022-12-15T11:35:42.002Z,17.17
2022-12-15T11:38:17.529Z,17.65
2022-12-15T11:40:44.063Z,17.15
2022-12-15T11:43:25.357Z,17.17
2022-12-15T11:45:52.139Z,16.27
2022-12-15T11:48:22.194Z,15.80
2022-12-15T11:50:57.944Z,15.95
2022-12-15T11:53:27.310Z,16.00
2022-12-15T11:56:06.652Z,16.95
2022-12-15T12:02:00.791Z,17.60
2022-12-15T12:04:48.362Z,16.42
2022-12-15T12:07:35.609Z,15.93
2022-12-15T12:10:15.912Z,14.65
2022-12-15T12:12:46.461Z,15.25
2022-12-15T12:15:26.025Z,14.82
2022-12-15T12:17:53.570Z,15.55
2022-12-15T12:20:21.904Z,16.00
2022-12-15T12:23:08.474Z,15.60
2022-12-15T12:25:39.964Z,16.63
2022-12-15T12:28:13.975Z,16.52
2022-12-15T12:30:45.647Z,16.52
2022-12-15T12:33:16.513Z,16.35
2022-12-15T12:35:46.560Z,14.70
2022-12-15T12:38:20.075Z,15.88
2022-12-15T12:40:57.677Z,16.05
2022-12-15T12:43:31.839Z,15.98
2022-12-15T12:46:07.416Z,16.38
2022-12-15T12:48:51.845Z,17.88
2022-12-15T12:51:18.215Z,17.52
2022-12-15T12:53:44.578Z,18.10
2022-12-15T12:56:30.341Z,17.83
2022-12-15T12:58:56.789Z,17.50
2022-12-15T13:01:31.471Z,17.25
2022-12-15T13:04:06.464Z,18.67
2022-12-15T13:06:35.788Z,17.30
2022-12-15T13:09:17.111Z,18.75
2022-12-15T13:11:49.380Z,18.25
2022-12-15T13:14:25.598Z,18.70
2022-12-15T13:17:25.012Z,18.85
2022-12-15T13:20:00.646Z,20.15
2022-12-15T13:22:34.571Z,18.65
2022-12-15T13:25:02.072Z,19.95
2022-12-15T13:27:35.408Z,19.30
2022-12-15T13:30:03.972Z,20.65
2022-12-15T13:32:37.726Z,20.63
2022-12-15T13:35:12.927Z,20.27
2022-12-15T13:37:45.474Z,20.40
2022-12-15T13:40:24.277Z,20.30
2022-12-15T13:43:05.645Z,21.15
2022-12-15T13:45:51.948Z,19.38
2022-12-15T13:48:21.924Z,17.92
2022-12-15T13:51:02.383Z,19.85
2022-12-15T13:53:32.325Z,18.67
2022-12-15T13:56:03.339Z,20.40
2022-12-15T13:58:33.004Z,19.05
2022-12-15T14:00:59.338Z,21.25
2022-12-15T14:03:25.997Z,20.63
2022-12-15T14:05:57.292Z,21.08
2022-12-15T14:08:26.272Z,22.48
2022-12-15T14:10:54.004Z,22.88
2022-12-15T14:13:23.304Z,23.45
2022-12-15T14:15:57.958Z,24.27
2022-12-15T14:18:28.446Z,23.05
2022-12-15T14:20:55.040Z,23.77
2022-12-15T14:23:26.118Z,24.33
2022-12-15T14:25:56.929Z,24.65
2022-12-15T14:28:31.703Z,24.75
2022-12-15T14:31:07.109Z,25.88
2022-12-15T14:33:35.419Z,26.55
2022-12-15T14:36:04.777Z,27.45
2022-12-15T14:38:33.860Z,26.40
2022-12-15T14:41:01.961Z,25.15
2022-12-15T14:43:36.931Z,25.58
2022-12-15T14:46:08.958Z,26.63
2022-12-15T14:48:53.842Z,26.77
2022-12-15T14:51:21.086Z,28.10
2022-12-15T14:53:53.037Z,27.88
2022-12-15T14:56:25.739Z,27.70
2022-12-15T14:58:55.737Z,28.85
2022-12-15T15:01:40.086Z,27.65
2022-12-15T15:03:06.437Z,21.42
2022-12-15T15:03:12.081Z,17.20
2022-12-15T15:04:21.525Z,28.52
2022-12-15T15:06:53.281Z,29.10
2022-12-15T15:09:26.955Z,29.73
2022-12-15T15:12:04.662Z,30.25
2022-12-15T15:14:33.139Z,29.42
2022-12-15T15:17:00.218Z,28.02
2022-12-15T15:19:28.852Z,29.70
2022-12-15T15:21:55.517Z,29.98
2022-12-15T15:24:29.629Z,29.80
2022-12-15T15:27:16.015Z,28.80
2022-12-15T15:29:42.489Z,29.48
2022-12-15T15:32:19.587Z,30.27
2022-12-15T15:34:47.085Z,28.55
2022-12-15T15:37:18.392Z,30.33
2022-12-15T15:39:45.150Z,30.23
2022-12-15T15:42:13.258Z,30.85
2022-12-15T15:44:40.915Z,30.38
2022-12-15T15:47:15.038Z,29.73
2022-12-15T15:49:41.978Z,30.23
2022-12-15T15:52:09.653Z,30.00
2022-12-15T15:54:36.120Z,31.77
2022-12-15T15:57:02.470Z,28.05
2022-12-15T15:59:29.052Z,31.45
2022-12-15T16:01:59.664Z,31.83
2022-12-15T16:04:26.338Z,31.45
2022-12-15T16:06:52.765Z,30.45
2022-12-15T16:09:19.127Z,30.45
2022-12-15T16:11:46.322Z,32.30
2022-12-15T16:14:14.011Z,32.72
2022-12-15T16:16:41.566Z,21.55
2022-12-15T16:19:08.106Z,27.05
2022-12-15T16:21:35.385Z,29.23
2022-12-15T16:24:09.608Z,29.73
2022-12-15T16:26:38.746Z,29.75
2022-12-15T16:29:14.467Z,30.90
2022-12-15T16:31:45.343Z,33.90
2022-12-15T16:34:12.701Z,32.92
2022-12-15T16:36:41.086Z,33.97
2022-12-15T16:39:20.856Z,33.72
2022-12-15T16:41:47.683Z,34.42
2022-12-15T16:44:14.092Z,36.10
2022-12-15T16:46:40.567Z,36.08
2022-12-15T16:49:07.060Z,33.60
2022-12-15T16:51:37.076Z,34.58
2022-12-15T16:54:03.745Z,34.75
2022-12-15T16:56:30.109Z,36.05
2022-12-15T16:59:15.541Z,35.65
2022-12-15T17:01:43.545Z,36.78
2022-12-15T17:04:10.062Z,36.78
2022-12-15T17:06:36.497Z,36.55
2022-12-15T17:09:02.930Z,36.17
2022-12-15T17:11:29.421Z,35.28
2022-12-15T17:13:57.053Z,36.30
2022-12-15T17:16:24.750Z,37.53
2022-12-15T17:18:51.556Z,36.00
2022-12-15T17:21:19.453Z,34.85
2022-12-15T17:23:47.828Z,35.92
2022-12-15T17:26:33.079Z,35.25
2022-12-15T17:29:01.012Z,35.20
2022-12-15T17:31:33.283Z,36.10
2022-12-15T17:34:02.531Z,37.25
2022-12-15T17:36:28.944Z,37.25
2022-12-15T17:38:57.880Z,36.40
2022-12-15T17:41:57.529Z,37.03
2022-12-15T17:44:32.851Z,34.67
2022-12-15T17:47:00.418Z,36.13
2022-12-15T17:49:30.129Z,34.47
2022-12-15T17:52:02.150Z,38.47
2022-12-15T17:54:29.619Z,39.50
2022-12-15T17:56:57.111Z,38.97
2022-12-15T17:59:23.445Z,39.70
2022-12-15T18:01:49.953Z,37.78
2022-12-15T18:04:16.407Z,37.67
2022-12-15T18:06:43.765Z,37.15
2022-12-15T18:09:17.497Z,36.83
2022-12-15T18:11:46.513Z,35.25
2022-12-15T18:14:14.622Z,36.58
2022-12-15T18:16:41.370Z,37.70
2022-12-15T18:19:08.130Z,36.03
2022-12-15T18:21:34.554Z,35.53
2022-12-15T18:24:00.937Z,33.55
2022-12-15T18:26:27.712Z,40.22
2022-12-15T18:28:54.079Z,39.05
2022-12-15T18:31:26.062Z,37.08
2022-12-15T18:34:00.885Z,38.83
2022-12-15T18:36:29.078Z,38.55
2022-12-15T18:38:55.385Z,39.00
2022-12-15T18:41:21.731Z,35.47
2022-12-15T18:43:48.093Z,38.97
2022-12-15T18:46:15.408Z,36.47
2022-12-15T18:48:42.605Z,37.53
2022-12-15T18:51:16.602Z,37.70
2022-12-15T18:53:42.988Z,36.03
2022-12-15T18:56:10.563Z,40.08
2022-12-15T18:58:37.731Z,38.00
2022-12-15T19:01:04.963Z,36.35
2022-12-15T19:03:32.241Z,38.67
2022-12-15T19:06:03.040Z,41.17
2022-12-15T19:08:31.987Z,36.10
2022-12-15T19:11:04.331Z,39.55
2022-12-15T19:13:33.484Z,38.25
2022-12-15T19:16:00.943Z,40.33
2022-12-15T19:18:46.116Z,40.40
2022-12-15T19:21:33.228Z,38.47
2022-12-15T19:24:01.319Z,40.40
2022-12-15T19:26:27.671Z,39.22
2022-12-15T19:28:54.136Z,38.78
2022-12-15T19:31:20.499Z,37.45
2022-12-15T19:33:46.861Z,46.25
2022-12-15T19:36:17.886Z,39.90
2022-12-15T19:38:48.900Z,40.22
2022-12-15T19:41:16.253Z,36.92
2022-12-15T19:43:43.434Z,36.97
2022-12-15T19:46:18.025Z,37.25
2022-12-15T19:48:44.521Z,37.88
2022-12-15T19:51:15.437Z,38.85
2022-12-15T19:53:42.784Z,40.60
2022-12-15T19:56:14.914Z,41.47
2022-12-15T19:58:41.665Z,42.80
2022-12-15T20:01:10.475Z,39.08
2022-12-15T20:03:37.654Z,38.00
2022-12-15T20:06:06.396Z,38.85
2022-12-15T20:08:34.205Z,36.50
2022-12-15T20:11:00.624Z,37.50
2022-12-15T20:13:27.118Z,38.80
2022-12-15T20:15:54.257Z,38.30
2022-12-15T20:18:20.870Z,37.15
2022-12-15T20:20:48.560Z,36.25
2022-12-15T20:23:20.692Z,35.03
2022-12-15T20:25:47.512Z,35.38
2022-12-15T20:28:20.488Z,36.30
2022-12-15T20:30:47.489Z,33.40
2022-12-15T20:33:15.306Z,34.50
2022-12-15T20:35:42.930Z,35.47
2022-12-15T20:38:27.432Z,33.08
2022-12-15T20:40:53.932Z,35.67
2022-12-15T20:43:21.352Z,36.33
2022-12-15T20:45:51.961Z,36.78
2022-12-15T20:48:21.081Z,36.03
2022-12-15T20:50:48.837Z,37.85
2022-12-15T20:53:16.649Z,38.70
2022-12-15T20:55:44.422Z,42.47
2022-12-15T20:58:11.285Z,45.80
2022-12-15T21:00:38.209Z,42.47
2022-12-15T21:03:16.426Z,38.05
2022-12-15T21:05:44.186Z,41.50
2022-12-15T21:08:15.524Z,41.50
2022-12-15T21:10:41.855Z,40.65
2022-12-15T21:13:13.649Z,35.60
2022-12-15T21:15:40.018Z,34.40
2022-12-15T21:18:51.531Z,37.30
2022-12-15T21:20:58.684Z,35.90
2022-12-15T21:23:27.320Z,34.55
2022-12-15T21:25:54.505Z,35.53
2022-12-15T21:28:21.585Z,33.90
2022-12-15T21:30:48.184Z,34.78
2022-12-15T21:33:15.283Z,38.25
2022-12-15T21:35:42.321Z,34.92
2022-12-15T21:38:25.793Z,35.70
2022-12-15T21:40:59.199Z,35.45
2022-12-15T21:43:29.984Z,34.97
2022-12-15T21:45:56.656Z,36.13
2022-12-15T21:48:41.456Z,34.30
2022-12-15T21:51:12.460Z,35.55
2022-12-15T21:53:38.828Z,35.85
2022-12-15T21:56:05.289Z,33.40
2022-12-15T21:58:32.013Z,33.67
2022-12-15T22:01:00.064Z,32.80
2022-12-15T22:03:26.491Z,32.45
2022-12-15T22:05:52.825Z,34.40
2022-12-15T22:08:20.210Z,33.10
2022-12-15T22:10:47.037Z,33.97
2022-12-15T22:13:16.152Z,33.42
2022-12-15T22:15:42.631Z,32.78
2022-12-15T22:18:19.782Z,33.75
2022-12-15T22:20:48.221Z,33.92
2022-12-15T22:23:15.684Z,31.73
2022-12-15T22:25:42.055Z,34.50
2022-12-15T22:28:18.623Z,33.35
2022-12-15T22:30:45.036Z,32.05
2022-12-15T22:33:21.650Z,35.10
2022-12-15T22:35:50.954Z,33.15
2022-12-15T22:38:21.273Z,31.25
2022-12-15T22:40:49.113Z,30.70
2022-12-15T22:43:20.409Z,33.40
2022-12-15T22:45:47.928Z,31.75
2022-12-15T22:48:14.617Z,31.77
2022-12-15T22:50:41.036Z,34.20
2022-12-15T22:53:17.544Z,32.35
2022-12-15T22:55:45.150Z,33.17
2022-12-15T22:58:14.565Z,34.42
2022-12-15T23:00:41.065Z,35.30
2022-12-15T23:03:10.116Z,33.33
2022-12-15T23:05:39.253Z,33.08
2022-12-15T23:08:05.540Z,35.17
2022-12-15T23:10:50.301Z,35.10
2022-12-15T23:13:16.672Z,32.83
2022-12-15T23:16:01.860Z,35.08
2022-12-15T23:18:28.210Z,34.15
2022-12-15T23:20:54.608Z,36.22
2022-12-15T23:23:21.058Z,35.42
2022-12-15T23:25:47.384Z,36.20
2022-12-15T23:28:14.081Z,37.08
2022-12-15T23:30:40.440Z,36.33
2022-12-15T23:33:06.822Z,37.53
2022-12-15T23:35:33.114Z,38.50
2022-12-15T23:37:59.451Z,39.47
2022-12-15T23:40:25.725Z,34.90
2022-12-15T23:42:52.255Z,38.65
2022-12-15T23:45:18.777Z,37.15
2022-12-15T23:47:45.175Z,38.22
2022-12-15T23:50:11.569Z,38.58
2022-12-15T23:52:37.931Z,39.30
2022-12-15T23:55:04.744Z,40.60
2022-12-15T23:57:31.444Z,41.17
2022-12-15T23:59:57.745Z,40.90
